createdAt,value
2019-06-07T00:01:28.051Z,96164.61
2019-06-07T00:03:55.148Z,96163.53
2019-06-07T00:06:25.410Z,96161.63
2019-06-07T00:08:51.231Z,96158.41
2019-06-07T00:11:20.524Z,96167.33
2019-06-07T00:13:47.281Z,96165.70
2019-06-07T00:16:19.086Z,96174.36
2019-06-07T00:18:43.332Z,96165.98
2019-06-07T00:21:11.785Z,96152.43
2019-06-07T00:23:39.002Z,96153.25
2019-06-07T00:26:06.111Z,96153.80
2019-06-07T00:28:33.208Z,96142.44
2019-06-07T00:31:00.300Z,96142.44
2019-06-07T00:33:27.440Z,96158.13
2019-06-07T00:35:54.517Z,96144.05
2019-06-07T00:38:22.056Z,96155.42
2019-06-07T00:40:49.177Z,96155.42
2019-06-07T00:43:19.165Z,96150.00
2019-06-07T00:45:45.266Z,96143.52
2019-06-07T00:48:19.543Z,96128.08
2019-06-07T00:50:41.336Z,96123.21
2019-06-07T00:53:16.812Z,96123.21
2019-06-07T00:55:37.394Z,96133.50
2019-06-07T00:58:04.596Z,96118.34
2019-06-07T01:00:31.660Z,96118.34
2019-06-07T01:02:58.770Z,96117.80
2019-06-07T01:05:31.051Z,96092.91
2019-06-07T01:07:54.856Z,96092.91
2019-06-07T01:10:51.536Z,96111.03
2019-06-07T01:12:53.921Z,96111.03
2019-06-07T01:15:27.575Z,96105.61
2019-06-07T01:18:32.892Z,96105.61
2019-06-07T01:20:22.790Z,96108.02
2019-06-07T01:22:49.647Z,96087.45
2019-06-07T01:25:18.321Z,96090.97
2019-06-07T01:27:45.713Z,96081.78
2019-06-07T01:30:13.405Z,96069.57
2019-06-07T01:32:40.488Z,96069.57
2019-06-07T01:35:07.949Z,96083.63
2019-06-07T01:37:35.016Z,96075.25
2019-06-07T01:40:02.207Z,96080.12
2019-06-07T01:42:30.978Z,96080.12
2019-06-07T01:44:58.255Z,96070.92
2019-06-07T01:47:28.756Z,96068.23
2019-06-07T01:49:54.316Z,96068.19
2019-06-07T01:52:23.492Z,96068.19
2019-06-07T01:54:57.803Z,96066.02
2019-06-07T01:57:36.710Z,96062.42
2019-06-07T01:59:48.321Z,96063.75
2019-06-07T02:02:15.372Z,96064.30
2019-06-07T02:04:42.514Z,96062.11
2019-06-07T02:07:09.606Z,96053.16
2019-06-07T02:09:36.669Z,96061.25
2019-06-07T02:12:24.765Z,96060.98
2019-06-07T02:14:39.114Z,96056.11
2019-06-07T02:17:06.168Z,96057.47
2019-06-07T02:19:33.661Z,96052.62
2019-06-07T02:22:00.930Z,96055.27
2019-06-07T02:24:29.642Z,96047.41
2019-06-07T02:26:57.008Z,96046.33
2019-06-07T02:29:25.443Z,96049.28
2019-06-07T02:31:53.032Z,96051.20
2019-06-07T02:34:21.518Z,96048.73
2019-06-07T02:36:48.647Z,96046.36
2019-06-07T02:39:15.971Z,96046.38
2019-06-07T02:41:43.318Z,96049.58
2019-06-07T02:44:10.464Z,96033.90
2019-06-07T02:46:46.768Z,96046.80
2019-06-07T02:49:06.514Z,96042.98
2019-06-07T02:51:41.131Z,96040.03
2019-06-07T02:54:02.553Z,96041.93
2019-06-07T02:56:52.476Z,96040.89
2019-06-07T02:58:58.597Z,96044.36
2019-06-07T03:01:28.422Z,96044.34
2019-06-07T03:03:54.838Z,96046.45
2019-06-07T03:06:22.083Z,96053.77
2019-06-07T03:08:49.298Z,96051.17
2019-06-07T03:11:16.363Z,96048.48
2019-06-07T03:13:46.228Z,96052.86
2019-06-07T03:16:17.596Z,96051.25
2019-06-07T03:18:52.786Z,96062.03
2019-06-07T03:21:21.330Z,96070.30
2019-06-07T03:23:51.376Z,96073.20
2019-06-07T03:26:20.250Z,96071.29
2019-06-07T03:28:47.284Z,96071.29
2019-06-07T03:31:14.334Z,96073.13
2019-06-07T03:33:44.625Z,96066.53
2019-06-07T03:36:23.204Z,96070.29
2019-06-07T03:38:39.831Z,96070.52
2019-06-07T03:41:07.229Z,96076.95
2019-06-07T03:43:36.656Z,96078.80
2019-06-07T03:46:03.227Z,96076.61
2019-06-07T03:48:32.280Z,96086.32
2019-06-07T03:51:04.465Z,96088.16
2019-06-07T03:53:30.490Z,96087.23
2019-06-07T03:55:57.178Z,96091.14
2019-06-07T03:58:36.646Z,96098.44
2019-06-07T04:00:53.224Z,96094.67
2019-06-07T04:03:33.570Z,96093.63
2019-06-07T04:05:49.690Z,96102.53
2019-06-07T04:08:16.906Z,96103.70
2019-06-07T04:10:58.461Z,96098.09
2019-06-07T04:13:12.903Z,96092.23
2019-06-07T04:15:41.402Z,96089.31
2019-06-07T04:18:08.653Z,96090.14
2019-06-07T04:20:38.114Z,96083.46
2019-06-07T04:23:25.051Z,96081.03
2019-06-07T04:25:36.802Z,96084.58
2019-06-07T04:28:02.664Z,96080.84
2019-06-07T04:30:41.995Z,96085.69
2019-06-07T04:33:09.824Z,96080.05
2019-06-07T04:35:58.450Z,96083.03
2019-06-07T04:38:25.925Z,96080.66
2019-06-07T04:40:53.405Z,96069.37
2019-06-07T04:43:20.498Z,96073.74
2019-06-07T04:45:51.070Z,96069.45
2019-06-07T04:48:19.895Z,96070.34
2019-06-07T04:51:08.276Z,96074.97
2019-06-07T04:53:38.662Z,96077.69
2019-06-07T04:56:26.425Z,96076.12
2019-06-07T04:58:53.504Z,96076.12
2019-06-07T05:01:27.353Z,96067.18
2019-06-07T05:03:55.946Z,96075.31
2019-06-07T05:06:36.300Z,96075.31
2019-06-07T05:09:09.836Z,96075.86
2019-06-07T05:11:39.296Z,96075.86
2019-06-07T05:14:12.132Z,96070.69
2019-06-07T05:16:43.690Z,96070.36
2019-06-07T05:19:14.651Z,96054.77
2019-06-07T05:22:01.562Z,96058.63
2019-06-07T05:24:17.014Z,96053.28
2019-06-07T05:26:44.145Z,96047.65
2019-06-07T05:29:11.151Z,96054.84
2019-06-07T05:31:41.824Z,96056.20
2019-06-07T05:34:13.498Z,96045.89
2019-06-07T05:36:44.289Z,96046.69
2019-06-07T05:39:15.829Z,96044.56
2019-06-07T05:41:44.418Z,96040.56
2019-06-07T05:44:17.913Z,96049.97
2019-06-07T05:46:47.145Z,96049.42
2019-06-07T05:49:23.882Z,96054.02
2019-06-07T05:51:50.935Z,96049.71
2019-06-07T05:54:18.003Z,96048.02
2019-06-07T05:56:45.505Z,96039.16
2019-06-07T05:59:20.165Z,96034.32
2019-06-07T06:01:58.914Z,96034.95
2019-06-07T06:04:22.219Z,96025.30
2019-06-07T06:06:49.269Z,96022.23
2019-06-07T06:09:16.339Z,96018.30
2019-06-07T06:11:58.624Z,96017.20
2019-06-07T06:14:14.631Z,96014.42
2019-06-07T06:16:44.406Z,96005.00
2019-06-07T06:19:10.687Z,95994.06
2019-06-07T06:21:38.529Z,95996.44
2019-06-07T06:24:05.681Z,96004.27
2019-06-07T06:26:32.804Z,96003.93
2019-06-07T06:28:59.829Z,96002.57
2019-06-07T06:31:26.905Z,95999.62
2019-06-07T06:33:53.967Z,96002.38
2019-06-07T06:36:21.755Z,96003.56
2019-06-07T06:38:49.842Z,96005.03
2019-06-07T06:41:18.072Z,95999.73
2019-06-07T06:43:49.391Z,96006.78
2019-06-07T06:46:14.126Z,96002.13
2019-06-07T06:48:47.354Z,96003.46
2019-06-07T06:51:10.133Z,95996.07
2019-06-07T06:53:37.195Z,95991.42
2019-06-07T06:56:04.239Z,95988.38
2019-06-07T06:59:18.867Z,95994.86
2019-06-07T07:01:06.513Z,96000.50
2019-06-07T07:03:57.343Z,96007.22
2019-06-07T07:06:24.290Z,96005.03
2019-06-07T07:08:27.263Z,96004.92
2019-06-07T07:10:54.983Z,95994.81
2019-06-07T07:13:22.443Z,95991.47
2019-06-07T07:15:55.120Z,95995.14
2019-06-07T07:18:18.602Z,96000.23
2019-06-07T07:20:47.711Z,95994.41
2019-06-07T07:23:14.733Z,95997.56
2019-06-07T07:25:43.507Z,95990.96
2019-06-07T07:28:10.777Z,95991.39
2019-06-07T07:30:47.300Z,95990.87
2019-06-07T07:33:15.444Z,95986.88
2019-06-07T07:36:07.841Z,95984.77
2019-06-07T07:38:11.657Z,95984.89
2019-06-07T07:43:07.837Z,95974.63
2019-06-07T07:45:34.949Z,95974.44
2019-06-07T07:50:31.085Z,95962.03
2019-06-07T07:53:00.659Z,95967.45
2019-06-07T07:55:27.198Z,95954.78
2019-06-07T07:58:01.103Z,95956.83
2019-06-07T08:01:11.406Z,95953.20
2019-06-07T08:03:38.565Z,95950.58
2019-06-07T08:06:05.690Z,95950.30
2019-06-07T08:08:32.777Z,95938.66
2019-06-07T08:11:02.119Z,95939.53
2019-06-07T08:13:28.839Z,95938.83
2019-06-07T08:15:59.367Z,95933.88
2019-06-07T08:18:24.924Z,95932.28
2019-06-07T08:21:08.757Z,95935.61
2019-06-07T08:23:21.010Z,95935.06
2019-06-07T08:25:49.136Z,95932.73
2019-06-07T08:28:16.357Z,95930.17
2019-06-07T08:30:50.510Z,95919.09
2019-06-07T08:33:26.096Z,95925.30
2019-06-07T08:36:06.161Z,95924.27
2019-06-07T08:38:34.147Z,95915.23
2019-06-07T08:40:39.385Z,95908.95
2019-06-07T08:43:20.865Z,95909.16
2019-06-07T08:45:35.507Z,95911.41
2019-06-07T08:48:12.971Z,95908.95
2019-06-07T08:50:31.718Z,95909.75
2019-06-07T08:53:05.111Z,95909.84
2019-06-07T08:55:27.811Z,95909.69
2019-06-07T08:58:02.246Z,95901.95
2019-06-07T09:02:54.977Z,95895.17
2019-06-07T09:05:21.910Z,95896.30
2019-06-07T09:08:07.223Z,95896.01
2019-06-07T09:10:18.022Z,95887.16
2019-06-07T09:12:45.107Z,95887.41
2019-06-07T09:15:21.408Z,95882.98
2019-06-07T09:18:29.565Z,95877.77
2019-06-07T09:20:35.101Z,95875.38
2019-06-07T09:22:41.594Z,95867.74
2019-06-07T09:25:21.173Z,95862.66
2019-06-07T09:27:42.080Z,95868.75
2019-06-07T09:30:16.568Z,95866.33
2019-06-07T09:32:38.520Z,95860.94
2019-06-07T09:35:12.617Z,95851.62
2019-06-07T09:40:19.655Z,95847.75
2019-06-07T09:42:33.012Z,95836.23
2019-06-07T09:45:01.188Z,95840.69
2019-06-07T09:47:32.544Z,95832.20
2019-06-07T09:50:02.364Z,95832.39
2019-06-07T09:52:27.069Z,95834.91
2019-06-07T09:55:23.169Z,95829.98
2019-06-07T09:57:29.153Z,95824.34
2019-06-07T09:59:56.319Z,95823.59
2019-06-07T10:02:31.491Z,95821.56
2019-06-07T10:05:01.526Z,95816.91
2019-06-07T10:07:33.979Z,95812.44
2019-06-07T10:12:36.106Z,95791.53
2019-06-07T10:15:15.750Z,95788.03
2019-06-07T10:17:42.894Z,95783.82
2019-06-07T10:20:10.140Z,95782.32
2019-06-07T10:22:37.352Z,95777.14
2019-06-07T10:25:06.319Z,95771.61
2019-06-07T10:30:41.692Z,95775.58
2019-06-07T10:33:08.756Z,95771.63
2019-06-07T10:35:35.828Z,95774.72
2019-06-07T10:38:02.941Z,95767.15
2019-06-07T10:40:30.004Z,95769.88
2019-06-07T10:42:57.082Z,95769.47
2019-06-07T10:45:24.135Z,95767.28
2019-06-07T10:47:51.216Z,95758.52
2019-06-07T10:50:18.292Z,95748.36
2019-06-07T10:52:45.378Z,95744.52
2019-06-07T10:55:31.921Z,95736.33
2019-06-07T10:57:59.012Z,95727.97
2019-06-07T11:00:26.232Z,95733.45
2019-06-07T11:02:55.273Z,95724.68
2019-06-07T11:05:32.142Z,95722.27
2019-06-07T11:08:00.713Z,95723.08
2019-06-07T11:10:34.350Z,95722.61
2019-06-07T11:13:01.429Z,95720.27
2019-06-07T11:15:28.544Z,95719.63
2019-06-07T11:17:55.715Z,95717.31
2019-06-07T11:20:22.840Z,95715.10
2019-06-07T11:22:49.913Z,95710.81
2019-06-07T11:25:16.938Z,95708.89
2019-06-07T11:27:44.050Z,95707.16
2019-06-07T11:30:12.554Z,95705.56
2019-06-07T11:32:39.782Z,95701.37
2019-06-07T11:35:08.772Z,95692.03
2019-06-07T11:37:35.859Z,95689.97
2019-06-07T11:40:03.281Z,95686.86
2019-06-07T11:42:30.350Z,95689.02
2019-06-07T11:44:57.516Z,95682.58
2019-06-07T11:47:24.605Z,95689.80
2019-06-07T11:49:51.679Z,95680.52
2019-06-07T11:52:18.747Z,95681.44
2019-06-07T11:54:48.142Z,95679.45
2019-06-07T11:57:15.191Z,95668.90
2019-06-07T11:59:42.310Z,95667.92
2019-06-07T12:02:09.386Z,95660.56
2019-06-07T12:04:36.457Z,95665.13
2019-06-07T12:07:03.623Z,95665.28
2019-06-07T12:09:30.774Z,95660.88
2019-06-07T12:11:57.855Z,95657.67
2019-06-07T12:14:24.914Z,95656.28
2019-06-07T12:16:51.992Z,95647.45
2019-06-07T12:19:19.807Z,95644.81
2019-06-07T12:21:46.965Z,95643.53
2019-06-07T12:24:14.247Z,95644.64
2019-06-07T12:26:41.401Z,95635.42
2019-06-07T12:29:08.453Z,95635.34
2019-06-07T12:31:35.548Z,95635.73
2019-06-07T12:34:02.663Z,95635.75
2019-06-07T12:36:29.763Z,95626.53
2019-06-07T12:38:56.843Z,95627.70
2019-06-07T12:41:24.209Z,95617.95
2019-06-07T12:43:51.272Z,95617.64
2019-06-07T12:46:23.067Z,95614.74
2019-06-07T12:48:47.350Z,95612.86
2019-06-07T12:51:15.190Z,95621.98
2019-06-07T12:53:42.268Z,95609.56
2019-06-07T12:56:09.334Z,95605.34
2019-06-07T12:58:39.475Z,95606.33
2019-06-07T13:01:05.392Z,95599.19
2019-06-07T13:03:32.505Z,95585.88
2019-06-07T13:06:00.362Z,95594.48
2019-06-07T13:08:28.191Z,95597.44
2019-06-07T13:10:55.513Z,95596.09
2019-06-07T13:13:23.129Z,95593.67
2019-06-07T13:15:58.184Z,95590.31
2019-06-07T13:18:25.368Z,95591.45
2019-06-07T13:20:55.340Z,95590.83
2019-06-07T13:23:31.334Z,95599.12
2019-06-07T13:25:58.393Z,95597.34
2019-06-07T13:28:25.460Z,95589.70
2019-06-07T13:30:52.577Z,95588.46
2019-06-07T13:33:21.502Z,95586.64
2019-06-07T13:35:55.049Z,95586.35
2019-06-07T13:38:41.685Z,95587.02
2019-06-07T13:41:08.854Z,95589.39
2019-06-07T13:43:35.924Z,95581.28
2019-06-07T13:46:03.016Z,95585.30
2019-06-07T13:48:30.097Z,95576.72
2019-06-07T13:50:57.195Z,95580.98
2019-06-07T13:53:25.075Z,95578.12
2019-06-07T13:55:59.662Z,95578.49
2019-06-07T13:58:26.748Z,95575.69
2019-06-07T14:00:53.950Z,95581.72
2019-06-07T14:03:24.260Z,95562.98
2019-06-07T14:05:50.035Z,95565.45
2019-06-07T14:08:17.075Z,95564.30
2019-06-07T14:10:44.156Z,95556.19
2019-06-07T14:13:11.252Z,95548.33
2019-06-07T14:15:38.401Z,95552.77
2019-06-07T14:18:05.559Z,95543.58
2019-06-07T14:20:34.586Z,95540.73
2019-06-07T14:23:01.639Z,95541.70
2019-06-07T14:25:29.352Z,95532.56
2019-06-07T14:27:56.542Z,95543.42
2019-06-07T14:32:51.320Z,95532.70
2019-06-07T14:35:18.506Z,95540.31
2019-06-07T14:37:45.601Z,95528.14
2019-06-07T14:40:13.813Z,95529.77
2019-06-07T14:42:40.965Z,95530.27
2019-06-07T14:45:08.563Z,95534.48
2019-06-07T14:47:35.635Z,95534.20
2019-06-07T14:50:04.146Z,95533.11
2019-06-07T14:52:33.295Z,95531.59
2019-06-07T14:55:00.247Z,95523.00
2019-06-07T14:57:27.341Z,95523.48
2019-06-07T14:59:54.490Z,95529.91
2019-06-07T15:02:21.620Z,95525.81
2019-06-07T15:04:48.722Z,95529.83
2019-06-07T15:07:15.829Z,95514.55
2019-06-07T15:09:42.970Z,95517.43
2019-06-07T15:12:24.118Z,95523.52
2019-06-07T15:14:39.138Z,95523.14
2019-06-07T15:17:06.226Z,95525.81
2019-06-07T15:19:34.558Z,95527.14
2019-06-07T15:22:02.334Z,95513.14
2019-06-07T15:24:33.667Z,95518.74
2019-06-07T15:26:58.401Z,95519.53
2019-06-07T15:29:25.497Z,95515.63
2019-06-07T15:31:52.600Z,95520.71
2019-06-07T15:34:19.684Z,95509.88
2019-06-07T15:36:46.802Z,95507.05
2019-06-07T15:39:13.913Z,95508.64
2019-06-07T15:41:40.996Z,95508.22
2019-06-07T15:44:08.082Z,95504.27
2019-06-07T15:46:35.656Z,95497.83
2019-06-07T15:49:02.868Z,95506.50
2019-06-07T15:51:30.654Z,95492.02
2019-06-07T15:53:57.784Z,95500.38
2019-06-07T15:56:24.871Z,95488.20
2019-06-07T15:58:51.948Z,95488.59
2019-06-07T16:01:19.075Z,95494.63
2019-06-07T16:03:46.167Z,95492.47
2019-06-07T16:06:13.278Z,95489.52
2019-06-07T16:08:40.548Z,95490.78
2019-06-07T16:11:07.702Z,95494.67
2019-06-07T16:13:34.824Z,95493.42
2019-06-07T16:16:01.943Z,95493.19
2019-06-07T16:18:29.007Z,95487.25
2019-06-07T16:20:56.111Z,95492.70
2019-06-07T16:23:23.184Z,95490.91
2019-06-07T16:25:50.265Z,95483.19
2019-06-07T16:28:17.339Z,95482.78
2019-06-07T16:30:44.817Z,95481.98
2019-06-07T16:33:11.996Z,95477.58
2019-06-07T16:35:39.142Z,95471.36
2019-06-07T16:38:06.198Z,95469.70
2019-06-07T16:40:33.413Z,95468.80
2019-06-07T16:43:16.419Z,95477.92
2019-06-07T16:45:29.488Z,95477.52
2019-06-07T16:47:56.573Z,95472.11
2019-06-07T16:50:23.713Z,95472.44
2019-06-07T16:52:50.839Z,95473.25
2019-06-07T16:55:18.040Z,95475.38
2019-06-07T16:57:45.317Z,95473.03
2019-06-07T17:00:13.965Z,95477.56
2019-06-07T17:02:42.271Z,95479.98
2019-06-07T17:05:09.623Z,95484.66
2019-06-07T17:07:38.163Z,95484.66
2019-06-07T17:10:08.133Z,95483.06
2019-06-07T17:12:35.406Z,95479.69
2019-06-07T17:15:02.766Z,95478.91
2019-06-07T17:17:30.331Z,95484.50
2019-06-07T17:19:57.428Z,95488.83
2019-06-07T17:22:24.515Z,95490.36
2019-06-07T17:24:51.621Z,95487.69
2019-06-07T17:27:18.705Z,95492.96
2019-06-07T17:29:45.872Z,95491.27
2019-06-07T17:32:15.959Z,95481.19
2019-06-07T17:34:42.057Z,95480.37
2019-06-07T17:37:09.157Z,95475.48
2019-06-07T17:39:36.256Z,95475.43
2019-06-07T17:42:03.463Z,95487.16
2019-06-07T17:44:30.596Z,95492.23
2019-06-07T17:46:57.691Z,95488.81
2019-06-07T17:49:24.783Z,95481.89
2019-06-07T17:51:52.326Z,95478.73
2019-06-07T17:54:27.377Z,95478.86
2019-06-07T17:56:55.987Z,95482.61
2019-06-07T17:59:23.259Z,95481.98
2019-06-07T18:02:10.169Z,95482.40
2019-06-07T18:04:19.370Z,95482.94
2019-06-07T18:06:47.328Z,95479.80
2019-06-07T18:12:39.644Z,95496.03
2019-06-07T18:15:52.920Z,95495.52
2019-06-07T18:18:42.454Z,95491.38
2019-06-07T18:21:09.539Z,95492.27
2019-06-07T18:23:36.613Z,95502.61
2019-06-07T18:26:03.852Z,95505.81
2019-06-07T18:28:30.947Z,95511.12
2019-06-07T18:30:58.959Z,95515.44
2019-06-07T18:33:36.844Z,95515.33
2019-06-07T18:36:04.327Z,95517.50
2019-06-07T18:38:31.415Z,95521.48
2019-06-07T18:40:59.575Z,95518.86
2019-06-07T18:43:26.779Z,95527.86
2019-06-07T18:45:53.842Z,95525.61
2019-06-07T18:48:20.906Z,95532.92
2019-06-07T18:50:48.635Z,95535.06
2019-06-07T18:53:35.878Z,95538.52
2019-06-07T18:56:03.082Z,95539.66
2019-06-07T18:58:30.141Z,95535.41
2019-06-07T19:00:57.604Z,95536.08
2019-06-07T19:03:24.748Z,95544.70
2019-06-07T19:05:52.176Z,95538.80
2019-06-07T19:08:19.348Z,95543.55
2019-06-07T19:10:46.446Z,95547.30
2019-06-07T19:13:13.564Z,95547.95
2019-06-07T19:15:43.289Z,95548.66
2019-06-07T19:18:29.034Z,95547.09
2019-06-07T19:20:56.497Z,95552.86
2019-06-07T19:23:51.757Z,95555.16
2019-06-07T19:26:58.998Z,95552.91
2019-06-07T19:29:26.084Z,95558.42
2019-06-07T19:31:53.402Z,95563.14
2019-06-07T19:34:20.456Z,95564.77
2019-06-07T19:36:48.990Z,95572.89
2019-06-07T19:39:36.138Z,95579.48
2019-06-07T19:42:44.072Z,95585.22
2019-06-07T19:48:54.530Z,95595.14
2019-06-07T19:54:25.345Z,95608.38
2019-06-07T19:56:53.410Z,95616.22
2019-06-07T19:59:41.139Z,95621.28
2019-06-07T20:02:08.218Z,95626.86
2019-06-07T20:04:35.295Z,95629.53
2019-06-07T20:07:03.949Z,95625.14
2019-06-07T20:09:31.652Z,95638.80
2019-06-07T20:11:58.713Z,95640.82
2019-06-07T20:14:25.808Z,95645.91
2019-06-07T20:16:53.332Z,95653.34
2019-06-07T20:19:20.436Z,95658.89
2019-06-07T20:21:47.496Z,95661.75
2019-06-07T20:24:26.830Z,95661.25
2019-06-07T20:26:43.557Z,95660.06
2019-06-07T20:29:25.392Z,95665.15
2019-06-07T20:31:39.604Z,95669.91
2019-06-07T20:34:06.685Z,95677.73
2019-06-07T20:36:33.780Z,95678.59
2019-06-07T20:39:02.159Z,95682.15
2019-06-07T20:41:29.245Z,95688.08
2019-06-07T20:43:57.553Z,95684.91
2019-06-07T20:46:47.299Z,95688.49
2019-06-07T20:49:14.376Z,95681.58
2019-06-07T20:51:41.440Z,95691.31
2019-06-07T20:54:09.100Z,95701.08
2019-06-07T20:56:36.310Z,95717.73
2019-06-07T20:59:04.771Z,95716.77
2019-06-07T21:01:31.861Z,95722.73
2019-06-07T21:03:59.033Z,95730.38
2019-06-07T21:06:26.098Z,95735.69
2019-06-07T21:08:53.179Z,95742.03
2019-06-07T21:11:20.266Z,95744.92
2019-06-07T21:13:47.358Z,95745.64
2019-06-07T21:16:14.427Z,95742.03
2019-06-07T21:18:41.494Z,95748.37
2019-06-07T21:21:08.664Z,95754.63
2019-06-07T21:23:35.768Z,95778.95
2019-06-07T21:29:07.068Z,95788.73
2019-06-07T21:31:57.674Z,95788.55
2019-06-07T21:34:24.801Z,95798.11
2019-06-07T21:36:51.867Z,95792.78
2019-06-07T21:39:18.914Z,95801.85
2019-06-07T21:41:46.002Z,95810.72
2019-06-07T21:44:13.124Z,95819.28
2019-06-07T21:46:40.184Z,95828.19
2019-06-07T21:49:08.479Z,95838.20
2019-06-07T21:51:35.576Z,95838.86
2019-06-07T21:54:06.288Z,95843.70
2019-06-07T21:56:31.646Z,95857.43
2019-06-07T21:58:58.714Z,95863.53
2019-06-07T22:01:27.215Z,95862.79
2019-06-07T22:03:54.323Z,95865.48
2019-06-07T22:06:21.380Z,95882.59
2019-06-07T22:08:48.480Z,95892.56
2019-06-07T22:11:15.553Z,95915.00
2019-06-07T22:13:42.609Z,95906.12
2019-06-07T22:16:24.528Z,95927.25
2019-06-07T22:18:38.662Z,95936.61
2019-06-07T22:21:06.391Z,95957.98
2019-06-07T22:23:53.223Z,95976.41
2019-06-07T22:26:20.275Z,95994.95
2019-06-07T22:28:47.356Z,96011.49
2019-06-07T22:31:14.949Z,96031.28
2019-06-07T22:33:42.210Z,96068.22
2019-06-07T22:36:09.266Z,96077.91
2019-06-07T22:38:36.347Z,96112.72
2019-06-07T22:41:03.427Z,96117.41
2019-06-07T22:43:30.535Z,96143.27
2019-06-07T22:45:57.602Z,96156.55
2019-06-07T22:48:24.699Z,96179.50
2019-06-07T22:50:51.755Z,96198.02
2019-06-07T22:53:18.861Z,96212.71
2019-06-07T22:55:50.158Z,96233.28
2019-06-07T22:58:18.918Z,96246.64
2019-06-07T23:00:46.074Z,96265.34
2019-06-07T23:03:14.892Z,96258.91
2019-06-07T23:05:42.149Z,96284.64
2019-06-07T23:08:09.193Z,96292.62
2019-06-07T23:10:36.234Z,96306.11
2019-06-07T23:13:03.558Z,96324.56
2019-06-07T23:15:30.604Z,96346.94
2019-06-07T23:17:57.650Z,96367.92
2019-06-07T23:20:24.694Z,96379.61
2019-06-07T23:22:51.837Z,96409.20
2019-06-07T23:25:22.935Z,96409.52
2019-06-07T23:28:14.358Z,96435.59
2019-06-07T23:31:01.264Z,96436.41
2019-06-07T23:33:28.361Z,96453.53
2019-06-07T23:35:55.437Z,96455.70
2019-06-07T23:38:22.488Z,96470.91
2019-06-07T23:40:49.544Z,96466.83
2019-06-07T23:43:17.564Z,96465.77
2019-06-07T23:45:44.699Z,96474.72
2019-06-07T23:48:11.753Z,96472.00
2019-06-07T23:50:38.862Z,96473.34
2019-06-07T23:53:05.930Z,96467.36
2019-06-07T23:55:33.003Z,96470.89
2019-06-07T23:58:00.104Z,96482.02
